Time;durP1;ratioP1;P1;durP2;ratioP2;P2;SDS_P1;SDS_P2;PMS_P1;PMS_P2;Temp;Humidity;BMP_temperature;BMP_pressure;BME280_temperature;BME280_humidity;BME280_pressure;Samples;Min_cycle;Max_cycle;Signal;HPM_P1;HPM_P2
2023/04/20 00:01:46;;;;;;;8.40;3.55;;;9.30;99.90;;;;;;5064707;28;20055;-73
2023/04/20 00:04:14;;;;;;;8.82;3.70;;;9.30;99.90;;;;;;5062732;28;20025;-72
2023/04/20 00:06:41;;;;;;;5.15;3.42;;;9.30;99.90;;;;;;5062979;28;20436;-72
2023/04/20 00:09:07;;;;;;;8.90;3.22;;;9.40;99.90;;;;;;5064317;28;20090;-74
2023/04/20 00:11:32;;;;;;;5.10;3.33;;;9.30;99.90;;;;;;5064109;28;20478;-73
2023/04/20 00:13:58;;;;;;;9.93;3.65;;;9.30;99.90;;;;;;5064125;28;20030;-73
2023/04/20 00:16:24;;;;;;;9.27;3.35;;;9.40;99.90;;;;;;5062759;28;20092;-72
2023/04/20 00:18:50;;;;;;;8.00;3.47;;;9.40;99.90;;;;;;5064062;28;20033;-72
2023/04/20 00:21:16;;;;;;;7.18;3.60;;;9.30;99.90;;;;;;5062796;28;20025;-75
2023/04/20 00:23:42;;;;;;;9.80;3.28;;;9.20;99.90;;;;;;5064064;28;20029;-75
2023/04/20 00:26:07;;;;;;;7.18;3.65;;;9.10;99.90;;;;;;5062487;28;20035;-74
2023/04/20 00:28:33;;;;;;;6.72;3.88;;;8.90;99.90;;;;;;5062402;28;20037;-74
2023/04/20 00:30:58;;;;;;;7.38;4.03;;;8.90;99.90;;;;;;5062430;28;20025;-75
2023/04/20 00:33:24;;;;;;;6.20;3.47;;;8.90;99.90;;;;;;5062671;28;20013;-76
2023/04/20 00:35:50;;;;;;;6.47;3.85;;;8.90;99.90;;;;;;5062561;28;20025;-75
2023/04/20 00:38:19;;;;;;;11.00;4.35;;;8.90;99.90;;;;;;5062501;28;20033;-75
2023/04/20 00:40:51;;;;;;;9.00;3.92;;;8.80;99.90;;;;;;5063415;28;20068;-76
2023/04/20 00:43:18;;;;;;;10.48;4.05;;;8.80;99.90;;;;;;5062689;28;20072;-76
2023/04/20 00:45:45;;;;;;;8.18;4.20;;;8.80;99.90;;;;;;5063715;28;20084;-75
2023/04/20 00:48:11;;;;;;;6.53;3.85;;;8.80;99.90;;;;;;5063183;28;20044;-75
2023/04/20 00:50:38;;;;;;;5.65;3.67;;;8.80;99.90;;;;;;5062835;28;20104;-74
2023/04/20 00:53:05;;;;;;;7.10;3.80;;;8.80;99.90;;;;;;5061977;28;20100;-72
2023/04/20 00:55:30;;;;;;;9.45;3.58;;;8.80;99.90;;;;;;5062987;28;20017;-74
2023/04/20 00:57:57;;;;;;;10.65;3.28;;;8.80;99.90;;;;;;5061698;28;20028;-74
2023/04/20 01:00:22;;;;;;;6.80;3.45;;;8.90;99.90;;;;;;5063547;28;20028;-72
2023/04/20 01:02:49;;;;;;;7.38;3.53;;;8.90;99.90;;;;;;5063454;28;20021;-74
2023/04/20 01:05:14;;;;;;;10.48;3.72;;;8.90;99.90;;;;;;5063378;28;20036;-74
2023/04/20 01:07:40;;;;;;;9.13;3.50;;;8.80;99.90;;;;;;5061836;28;20029;-74
2023/04/20 01:10:07;;;;;;;6.80;3.20;;;8.90;99.90;;;;;;5061835;28;20029;-73
2023/04/20 01:12:33;;;;;;;10.02;3.50;;;8.80;99.90;;;;;;5062868;28;20021;-73
2023/04/20 01:14:58;;;;;;;7.70;3.28;;;8.90;99.90;;;;;;5063042;28;20065;-74
2023/04/20 01:17:24;;;;;;;8.30;3.42;;;8.90;99.90;;;;;;5062690;28;20036;-72
2023/04/20 01:19:50;;;;;;;7.72;3.58;;;8.80;99.90;;;;;;5062826;28;20049;-75
2023/04/20 01:22:18;;;;;;;7.38;3.47;;;8.80;99.90;;;;;;5061715;28;20052;-74
2023/04/20 01:24:44;;;;;;;7.78;3.65;;;8.70;99.90;;;;;;5062347;28;20890;-76
2023/04/20 01:27:10;;;;;;;6.70;3.75;;;8.70;99.90;;;;;;5063014;28;20709;-71
2023/04/20 01:29:36;;;;;;;8.60;4.15;;;8.60;99.90;;;;;;5061822;28;20062;-73
2023/04/20 01:32:02;;;;;;;10.70;3.80;;;8.70;99.90;;;;;;5062814;28;20080;-74
2023/04/20 01:34:27;;;;;;;6.53;3.67;;;8.60;99.90;;;;;;5060988;28;20056;-73
2023/04/20 01:36:54;;;;;;;9.40;3.72;;;8.60;99.90;;;;;;5060916;28;20017;-74
2023/04/20 01:39:20;;;;;;;10.13;4.10;;;8.60;99.90;;;;;;5061399;28;20029;-74
2023/04/20 01:41:46;;;;;;;8.52;3.47;;;8.60;99.90;;;;;;5060988;28;20033;-76
2023/04/20 01:44:12;;;;;;;6.03;3.47;;;8.60;99.90;;;;;;5062359;28;20669;-74
2023/04/20 01:46:38;;;;;;;10.65;3.92;;;8.60;99.90;;;;;;5061161;28;20028;-74
2023/04/20 01:49:04;;;;;;;7.13;3.55;;;8.60;99.90;;;;;;5062145;28;20045;-74
2023/04/20 01:51:31;;;;;;;7.82;4.60;;;8.60;99.90;;;;;;5061763;28;20017;-73
2023/04/20 01:53:57;;;;;;;16.83;4.40;;;8.50;99.90;;;;;;5061893;28;20029;-74
2023/04/20 01:56:23;;;;;;;8.45;3.67;;;8.40;99.90;;;;;;5061874;28;20554;-73
2023/04/20 01:58:49;;;;;;;9.35;4.35;;;8.30;99.90;;;;;;5062581;28;20090;-75
2023/04/20 02:01:15;;;;;;;8.95;3.92;;;8.20;99.90;;;;;;5062653;28;20037;-73
2023/04/20 02:03:41;;;;;;;12.75;4.25;;;8.20;99.90;;;;;;5061777;28;20100;-73
2023/04/20 02:06:06;;;;;;;9.10;4.28;;;8.10;99.90;;;;;;5061818;28;20494;-73
2023/04/20 02:08:33;;;;;;;16.20;4.63;;;8.00;99.90;;;;;;5061580;28;20063;-74
2023/04/20 02:10:59;;;;;;;14.98;4.28;;;8.00;99.90;;;;;;5060115;28;20032;-74
2023/04/20 02:13:24;;;;;;;8.68;3.97;;;7.90;99.90;;;;;;5060700;28;20021;-74
2023/04/20 02:15:50;;;;;;;16.52;3.83;;;7.90;99.90;;;;;;5060631;28;20032;-74
2023/04/20 02:18:16;;;;;;;7.50;4.18;;;7.90;99.90;;;;;;5061672;28;20023;-75
2023/04/20 02:20:43;;;;;;;11.70;3.90;;;7.90;99.90;;;;;;5061846;28;20039;-73
2023/04/20 02:23:08;;;;;;;12.20;3.83;;;7.90;99.90;;;;;;5060570;28;20061;-73
2023/04/20 02:25:34;;;;;;;11.52;4.10;;;7.90;99.90;;;;;;5061575;28;20036;-73
2023/04/20 02:27:59;;;;;;;11.63;4.00;;;7.90;99.90;;;;;;5061852;28;20478;-73
2023/04/20 02:30:25;;;;;;;8.55;3.92;;;7.90;99.90;;;;;;5061779;28;20012;-73
2023/04/20 02:32:51;;;;;;;9.88;4.22;;;7.90;99.90;;;;;;5062111;28;20041;-73
2023/04/20 02:35:17;;;;;;;8.43;3.90;;;7.90;99.90;;;;;;5060523;28;20021;-73
2023/04/20 02:37:44;;;;;;;9.55;4.07;;;7.90;99.90;;;;;;5061453;28;20088;-73
2023/04/20 02:40:10;;;;;;;8.13;3.40;;;7.80;99.90;;;;;;5061688;28;20018;-73
2023/04/20 02:42:35;;;;;;;8.65;3.67;;;7.90;99.90;;;;;;5061609;28;20060;-74
2023/04/20 02:45:01;;;;;;;8.68;3.85;;;7.80;99.90;;;;;;5061341;28;20049;-75
2023/04/20 02:47:27;;;;;;;11.40;4.00;;;7.80;99.90;;;;;;5061725;28;20041;-74
2023/04/20 02:49:52;;;;;;;10.90;3.70;;;7.80;99.90;;;;;;5061668;28;20459;-73
2023/04/20 02:52:18;;;;;;;10.30;3.92;;;7.80;99.90;;;;;;5061483;28;20036;-73
2023/04/20 02:54:43;;;;;;;9.70;4.05;;;7.80;99.90;;;;;;5061767;28;20027;-73
2023/04/20 02:57:10;;;;;;;11.85;4.07;;;7.80;99.90;;;;;;5061263;28;20083;-74
2023/04/20 02:59:36;;;;;;;11.30;4.28;;;7.80;99.90;;;;;;5061640;28;20017;-73
2023/04/20 03:02:02;;;;;;;11.10;4.28;;;7.70;99.90;;;;;;5061586;28;20021;-73
2023/04/20 03:04:29;;;;;;;7.93;3.97;;;7.60;99.90;;;;;;5061573;28;20417;-73
2023/04/20 03:06:55;;;;;;;11.38;4.32;;;7.60;99.90;;;;;;5064646;28;20083;-73
2023/04/20 03:09:22;;;;;;;12.35;4.00;;;7.60;99.90;;;;;;5063907;28;20032;-74
2023/04/20 03:11:49;;;;;;;11.07;4.18;;;7.60;99.90;;;;;;5065487;28;20776;-74
2023/04/20 03:14:15;;;;;;;9.63;4.15;;;7.50;99.90;;;;;;5065460;28;20029;-75
2023/04/20 03:16:41;;;;;;;11.00;4.18;;;7.60;99.90;;;;;;5064658;28;20504;-73
2023/04/20 03:19:06;;;;;;;13.13;4.38;;;7.60;99.90;;;;;;5064812;28;20080;-74
2023/04/20 03:21:32;;;;;;;14.35;4.10;;;7.50;99.90;;;;;;5064814;28;20081;-74
2023/04/20 03:23:59;;;;;;;12.23;4.28;;;7.50;99.90;;;;;;5063871;28;20029;-72
2023/04/20 03:26:25;;;;;;;10.02;4.07;;;7.60;99.90;;;;;;5065160;28;20048;-74
2023/04/20 03:28:51;;;;;;;12.60;4.05;;;7.60;99.90;;;;;;5065073;28;20043;-75
2023/04/20 03:31:18;;;;;;;10.80;4.30;;;7.60;99.90;;;;;;5065163;28;20025;-73
2023/04/20 03:33:43;;;;;;;9.70;3.97;;;7.70;99.90;;;;;;5063253;28;20078;-72
2023/04/20 03:36:10;;;;;;;10.85;4.18;;;7.70;99.90;;;;;;5064221;28;20025;-73
2023/04/20 03:38:35;;;;;;;12.35;4.22;;;7.80;99.90;;;;;;5063641;28;20013;-73
2023/04/20 03:41:01;;;;;;;8.30;3.92;;;7.80;99.90;;;;;;5064475;28;20052;-73
2023/04/20 03:43:27;;;;;;;9.38;3.92;;;7.70;99.90;;;;;;5064717;28;20043;-73
2023/04/20 03:45:52;;;;;;;12.77;3.83;;;7.80;99.90;;;;;;5064363;28;20049;-73
2023/04/20 03:48:18;;;;;;;13.75;4.00;;;7.80;99.90;;;;;;5064709;28;20041;-73
2023/04/20 03:50:44;;;;;;;11.07;4.00;;;7.80;99.90;;;;;;5064334;28;20037;-74
2023/04/20 03:53:10;;;;;;;10.13;4.32;;;7.70;99.90;;;;;;5064175;28;20037;-73
2023/04/20 03:55:36;;;;;;;13.18;5.00;;;7.70;99.90;;;;;;5064273;28;20096;-73
2023/04/20 03:58:02;;;;;;;12.15;4.32;;;7.70;99.90;;;;;;5064450;28;20051;-74
2023/04/20 04:00:27;;;;;;;13.88;4.40;;;7.70;99.90;;;;;;5062761;28;20044;-73
2023/04/20 04:02:53;;;;;;;8.48;4.47;;;7.70;99.90;;;;;;5064454;28;20462;-73
2023/04/20 04:05:19;;;;;;;7.85;3.92;;;7.60;99.90;;;;;;5064637;28;20052;-74
2023/04/20 04:07:44;;;;;;;13.43;4.18;;;7.70;99.90;;;;;;5063808;28;20017;-74
2023/04/20 04:10:10;;;;;;;12.55;3.90;;;7.70;99.90;;;;;;5064063;28;20041;-72
2023/04/20 04:12:35;;;;;;;11.05;4.10;;;7.60;99.90;;;;;;5064200;28;20041;-71
2023/04/20 04:15:01;;;;;;;12.68;4.43;;;7.60;99.90;;;;;;5064337;28;20056;-71
2023/04/20 04:17:27;;;;;;;12.40;4.72;;;7.50;99.90;;;;;;5063910;28;20049;-71
2023/04/20 04:19:53;;;;;;;12.90;5.10;;;7.50;99.90;;;;;;5064128;28;20029;-73
2023/04/20 04:22:18;;;;;;;12.75;5.22;;;7.40;99.90;;;;;;5062976;28;20017;-73
2023/04/20 04:24:44;;;;;;;15.20;5.40;;;7.40;99.90;;;;;;5064122;28;20059;-73
2023/04/20 04:27:12;;;;;;;12.05;4.60;;;7.30;99.90;;;;;;5062640;28;20025;-73
2023/04/20 04:29:40;;;;;;;10.52;4.80;;;7.30;99.90;;;;;;5063270;28;20036;-75
2023/04/20 04:32:06;;;;;;;14.85;5.50;;;7.20;99.90;;;;;;5063651;28;20024;-75
2023/04/20 04:34:33;;;;;;;17.90;5.47;;;7.20;99.90;;;;;;5063659;28;20095;-76
2023/04/20 04:36:59;;;;;;;12.63;5.32;;;7.10;99.90;;;;;;5062217;28;20025;-78
2023/04/20 04:39:26;;;;;;;13.23;5.22;;;7.10;99.90;;;;;;5062547;28;20032;-77
2023/04/20 04:41:52;;;;;;;14.98;5.50;;;7.00;99.90;;;;;;5063739;28;20029;-75
2023/04/20 04:44:18;;;;;;;18.05;5.65;;;7.00;99.90;;;;;;5063326;28;20044;-76
2023/04/20 04:46:46;;;;;;;16.20;5.75;;;6.90;99.90;;;;;;5061754;28;20196;-73
2023/04/20 04:49:11;;;;;;;12.88;5.43;;;6.90;99.90;;;;;;5063237;28;20066;-73
2023/04/20 04:51:37;;;;;;;14.25;6.25;;;6.90;99.90;;;;;;5062269;28;20120;-71
2023/04/20 04:54:03;;;;;;;16.17;5.88;;;6.80;99.90;;;;;;5062081;28;20029;-71
2023/04/20 04:56:29;;;;;;;13.43;5.35;;;6.80;99.90;;;;;;5062133;28;20036;-72
2023/04/20 04:58:54;;;;;;;13.90;5.75;;;6.80;99.90;;;;;;5062774;28;20042;-74
2023/04/20 05:01:20;;;;;;;17.20;5.60;;;6.80;99.90;;;;;;5063426;28;20031;-72
2023/04/20 05:03:46;;;;;;;17.77;5.95;;;6.80;99.90;;;;;;5063355;28;20445;-70
2023/04/20 05:06:11;;;;;;;18.20;6.32;;;6.80;99.90;;;;;;5061601;28;20041;-73
2023/04/20 05:08:37;;;;;;;14.98;6.50;;;6.80;99.90;;;;;;5061832;28;20050;-73
2023/04/20 05:11:03;;;;;;;24.52;6.68;;;6.80;99.90;;;;;;5062976;28;20018;-71
2023/04/20 05:13:28;;;;;;;17.15;6.72;;;6.80;99.90;;;;;;5062977;28;20029;-71
2023/04/20 05:15:54;;;;;;;22.30;5.97;;;6.80;99.90;;;;;;5062947;28;20108;-72
2023/04/20 05:18:19;;;;;;;17.02;6.40;;;6.80;99.90;;;;;;5060322;28;20025;-71
2023/04/20 05:20:51;;;;;;;12.57;6.05;;;6.80;99.90;;;;;;5059503;28;20474;-71
2023/04/20 05:23:17;;;;;;;15.07;6.35;;;6.80;99.90;;;;;;5059852;28;20025;-71
2023/04/20 05:25:44;;;;;;;16.95;6.80;;;6.80;99.90;;;;;;5058249;28;20063;-72
2023/04/20 05:28:10;;;;;;;16.35;6.28;;;6.80;99.90;;;;;;5056308;28;20120;-71
2023/04/20 05:30:35;;;;;;;20.55;6.82;;;6.80;99.90;;;;;;5062743;28;20033;-71
2023/04/20 05:33:01;;;;;;;15.43;6.40;;;6.80;99.90;;;;;;5062790;28;20084;-71
2023/04/20 05:35:26;;;;;;;15.88;6.50;;;6.80;99.90;;;;;;5062800;28;20021;-72
2023/04/20 05:37:52;;;;;;;16.40;7.07;;;6.80;99.90;;;;;;5060533;28;20021;-73
2023/04/20 05:40:20;;;;;;;15.70;6.57;;;6.80;99.90;;;;;;5060199;28;20061;-71
2023/04/20 05:42:46;;;;;;;17.55;6.50;;;6.80;99.90;;;;;;5060360;28;20029;-70
2023/04/20 05:45:11;;;;;;;18.92;9.27;;;6.80;99.90;;;;;;5062143;28;20744;-71
2023/04/20 05:47:37;;;;;;;20.85;7.15;;;6.80;99.90;;;;;;5061563;28;20017;-71
2023/04/20 05:50:03;;;;;;;17.85;7.35;;;6.80;99.90;;;;;;5061674;28;20047;-72
2023/04/20 05:52:29;;;;;;;15.57;7.10;;;6.80;99.90;;;;;;5061883;28;20032;-73
2023/04/20 05:54:55;;;;;;;20.05;7.07;;;6.80;99.90;;;;;;5060466;28;20033;-70
2023/04/20 05:57:23;;;;;;;17.65;6.65;;;6.80;99.90;;;;;;5056985;28;20954;-72
2023/04/20 05:59:49;;;;;;;19.05;7.15;;;6.90;99.90;;;;;;5062229;28;20477;-71
2023/04/20 06:02:15;;;;;;;16.13;7.00;;;6.90;99.90;;;;;;5060866;28;20440;-70
2023/04/20 06:04:41;;;;;;;19.80;7.25;;;6.90;99.90;;;;;;5061848;28;20093;-70
2023/04/20 06:07:07;;;;;;;20.42;7.13;;;6.90;99.90;;;;;;5061177;28;20036;-69
2023/04/20 06:09:32;;;;;;;24.33;7.43;;;6.90;99.90;;;;;;5061231;28;20436;-70
2023/04/20 06:11:59;;;;;;;21.67;7.65;;;7.00;99.90;;;;;;5062073;28;20021;-70
2023/04/20 06:14:25;;;;;;;19.42;7.25;;;7.00;99.90;;;;;;5061489;28;20488;-72
2023/04/20 06:16:51;;;;;;;18.08;7.60;;;7.00;99.90;;;;;;5060344;28;20021;-72
2023/04/20 06:19:16;;;;;;;21.20;7.75;;;7.00;99.90;;;;;;5061713;28;20055;-71
2023/04/20 06:21:42;;;;;;;18.55;7.63;;;7.00;99.90;;;;;;5061810;28;20068;-70
2023/04/20 06:24:08;;;;;;;16.67;7.50;;;7.10;99.90;;;;;;5061357;28;20040;-70
2023/04/20 06:26:33;;;;;;;21.88;7.78;;;7.10;99.90;;;;;;5061859;28;20024;-71
2023/04/20 06:28:59;;;;;;;21.55;8.50;;;7.20;99.90;;;;;;5061759;28;20048;-70
2023/04/20 06:31:25;;;;;;;19.35;7.63;;;7.20;99.90;;;;;;5061926;28;20033;-70
2023/04/20 06:33:51;;;;;;;20.27;8.15;;;7.30;99.90;;;;;;5062143;28;20028;-72
2023/04/20 06:36:17;;;;;;;23.48;9.18;;;7.30;99.90;;;;;;5061956;28;20021;-71
2023/04/20 06:38:43;;;;;;;17.92;7.63;;;7.40;99.90;;;;;;5061369;28;20025;-70
2023/04/20 06:41:08;;;;;;;25.67;8.73;;;7.40;99.90;;;;;;5063900;28;20024;-72
2023/04/20 06:43:34;;;;;;;20.75;8.02;;;7.40;99.90;;;;;;5065471;28;20021;-71
2023/04/20 06:46:00;;;;;;;23.05;8.32;;;7.40;99.90;;;;;;5065898;28;20524;-70
2023/04/20 06:48:26;;;;;;;21.75;9.40;;;7.40;99.90;;;;;;5065653;28;20063;-71
2023/04/20 06:50:52;;;;;;;22.42;9.02;;;7.30;99.90;;;;;;5064904;28;20081;-71
2023/04/20 06:53:18;;;;;;;19.15;8.85;;;7.30;99.90;;;;;;5065767;28;20040;-71
2023/04/20 06:55:44;;;;;;;19.73;9.10;;;7.30;99.90;;;;;;5065622;28;20039;-70
2023/04/20 06:58:09;;;;;;;22.27;8.60;;;7.20;99.90;;;;;;5060636;28;20616;-70
2023/04/20 07:00:35;;;;;;;23.50;8.77;;;7.20;99.90;;;;;;5062842;28;20029;-70
2023/04/20 07:03:01;;;;;;;24.15;10.43;;;7.20;99.90;;;;;;5060027;28;20025;-72
2023/04/20 07:05:27;;;;;;;23.70;9.25;;;7.20;99.90;;;;;;5063814;28;20025;-72
2023/04/20 07:07:53;;;;;;;24.23;9.68;;;7.30;99.90;;;;;;5064818;28;20077;-69
2023/04/20 07:10:20;;;;;;;20.02;9.50;;;7.30;99.90;;;;;;5065149;28;20091;-68
2023/04/20 07:12:46;;;;;;;25.05;10.13;;;7.30;99.90;;;;;;5060245;28;20075;-71
2023/04/20 07:15:12;;;;;;;24.98;9.93;;;7.30;99.90;;;;;;5064091;28;20029;-71
2023/04/20 07:17:37;;;;;;;23.00;10.10;;;7.40;99.90;;;;;;5065284;28;20025;-71
2023/04/20 07:20:07;;;;;;;22.88;10.40;;;7.40;99.90;;;;;;5064278;28;20021;-71
2023/04/20 07:22:39;;;;;;;23.20;9.40;;;7.40;99.90;;;;;;5063563;28;20647;-70
2023/04/20 07:25:06;;;;;;;19.33;10.18;;;7.40;99.90;;;;;;5064883;28;20020;-71
2023/04/20 07:27:37;;;;;;;22.15;10.20;;;7.40;99.90;;;;;;5064093;28;20029;-70
2023/04/20 07:30:05;;;;;;;32.55;11.27;;;7.40;99.90;;;;;;5064757;28;20025;-71
2023/04/20 07:32:32;;;;;;;22.63;10.80;;;7.40;99.90;;;;;;5064615;28;20050;-73
2023/04/20 07:34:58;;;;;;;26.23;12.05;;;7.40;99.90;;;;;;5063966;28;20033;-73
2023/04/20 07:37:27;;;;;;;28.58;11.60;;;7.40;99.90;;;;;;5064492;28;20024;-71
2023/04/20 07:39:52;;;;;;;22.67;10.93;;;7.50;99.90;;;;;;5064807;28;20025;-70
2023/04/20 07:42:18;;;;;;;22.30;11.63;;;7.60;99.90;;;;;;5065288;28;20473;-72
2023/04/20 07:44:44;;;;;;;26.05;12.25;;;7.60;99.90;;;;;;5064565;28;20060;-72
2023/04/20 07:47:10;;;;;;;22.92;11.93;;;7.60;99.90;;;;;;5064749;28;20024;-69
2023/04/20 07:49:37;;;;;;;22.38;12.13;;;7.60;99.90;;;;;;5064420;28;20051;-70
2023/04/20 07:52:03;;;;;;;30.52;12.32;;;7.60;99.90;;;;;;5064271;28;20025;-70
2023/04/20 07:54:28;;;;;;;26.02;12.45;;;7.60;99.90;;;;;;5063995;28;20040;-69
2023/04/20 07:56:55;;;;;;;23.25;12.15;;;7.70;99.90;;;;;;5064510;28;20032;-71
2023/04/20 07:59:21;;;;;;;24.75;11.82;;;7.70;99.90;;;;;;5064845;28;20399;-72
2023/04/20 08:01:47;;;;;;;25.95;12.40;;;7.70;99.90;;;;;;5062715;28;20073;-71
2023/04/20 08:04:13;;;;;;;24.13;11.95;;;7.70;99.90;;;;;;5062870;28;20080;-69
2023/04/20 08:06:38;;;;;;;24.60;11.90;;;7.70;99.90;;;;;;5064398;28;20024;-70
2023/04/20 08:09:04;;;;;;;22.13;11.90;;;7.70;99.90;;;;;;5063419;28;20037;-71
2023/04/20 08:11:30;;;;;;;27.55;12.48;;;7.70;99.90;;;;;;5060565;28;20071;-69
2023/04/20 08:13:56;;;;;;;29.15;13.35;;;7.70;99.90;;;;;;5061808;28;20486;-70
2023/04/20 08:16:21;;;;;;;26.35;12.38;;;7.70;99.90;;;;;;5062613;28;20032;-69
2023/04/20 08:18:47;;;;;;;25.75;13.85;;;7.70;99.90;;;;;;5063681;28;20031;-71
2023/04/20 08:21:13;;;;;;;32.08;14.05;;;7.80;99.90;;;;;;5063391;28;20052;-69
2023/04/20 08:23:38;;;;;;;32.05;14.45;;;7.80;99.90;;;;;;5063813;28;20025;-70
2023/04/20 08:26:04;;;;;;;26.83;14.20;;;7.80;99.90;;;;;;5062834;28;20112;-69
2023/04/20 08:28:30;;;;;;;24.55;14.48;;;7.80;99.90;;;;;;5063095;28;20032;-73
2023/04/20 08:30:56;;;;;;;24.95;13.25;;;7.80;99.90;;;;;;5061617;28;20041;-71
2023/04/20 08:33:22;;;;;;;24.55;14.30;;;7.80;99.90;;;;;;5060318;28;20032;-69
2023/04/20 08:35:53;;;;;;;27.52;14.52;;;7.80;99.90;;;;;;5062170;28;20025;-70
2023/04/20 08:38:26;;;;;;;27.90;15.00;;;7.90;99.90;;;;;;5061824;28;20163;-69
2023/04/20 08:40:52;;;;;;;26.02;15.20;;;7.90;99.90;;;;;;5060693;28;20029;-71
2023/04/20 08:43:18;;;;;;;29.38;15.40;;;7.80;99.90;;;;;;5061289;28;20132;-69
2023/04/20 08:45:47;;;;;;;32.20;16.50;;;7.90;99.90;;;;;;5060071;28;20088;-70
2023/04/20 08:48:16;;;;;;;32.70;15.38;;;7.90;99.90;;;;;;5061971;28;20029;-70
2023/04/20 08:50:43;;;;;;;28.80;16.08;;;7.90;99.90;;;;;;5060757;28;20406;-71
2023/04/20 08:53:08;;;;;;;30.25;14.93;;;7.80;99.90;;;;;;5063379;28;20021;-70
2023/04/20 08:55:34;;;;;;;30.50;15.95;;;7.80;99.90;;;;;;5062357;28;20029;-69
2023/04/20 08:57:59;;;;;;;30.27;15.18;;;7.80;99.90;;;;;;5063410;28;20427;-70
2023/04/20 09:00:25;;;;;;;31.20;15.60;;;7.80;99.90;;;;;;5062657;28;20025;-71
2023/04/20 09:02:54;;;;;;;29.52;15.18;;;7.80;99.90;;;;;;5062884;28;20479;-70
2023/04/20 09:05:30;;;;;;;30.33;15.25;;;7.90;99.90;;;;;;5060158;28;20071;-72
2023/04/20 09:07:58;;;;;;;30.42;15.50;;;7.90;99.90;;;;;;5061894;28;20036;-70
2023/04/20 09:10:25;;;;;;;30.65;15.77;;;7.90;99.90;;;;;;5062477;28;20048;-69
2023/04/20 09:12:52;;;;;;;33.13;16.50;;;7.90;99.90;;;;;;5061619;28;20025;-71
2023/04/20 09:15:28;;;;;;;31.88;17.08;;;7.90;99.90;;;;;;5061104;28;20029;-72
2023/04/20 09:17:54;;;;;;;36.50;17.23;;;7.90;99.90;;;;;;5058909;28;20055;-70
2023/04/20 09:20:27;;;;;;;35.20;17.42;;;7.90;99.90;;;;;;5061669;28;20029;-70
2023/04/20 09:22:56;;;;;;;34.15;17.20;;;7.90;99.90;;;;;;5062659;28;20029;-69
2023/04/20 09:25:25;;;;;;;36.30;17.05;;;7.90;99.90;;;;;;5061877;28;20017;-69
2023/04/20 09:28:01;;;;;;;25.50;15.60;;;7.90;99.90;;;;;;5062674;28;20590;-70
2023/04/20 09:30:45;;;;;;;32.45;17.45;;;7.90;99.90;;;;;;5060971;28;20086;-69
2023/04/20 09:33:11;;;;;;;34.20;17.42;;;7.90;99.90;;;;;;5058889;28;20029;-71
2023/04/20 09:35:39;;;;;;;31.15;16.90;;;7.90;99.90;;;;;;5061106;28;20040;-70
2023/04/20 09:38:06;;;;;;;35.05;17.05;;;7.90;99.90;;;;;;5059698;28;20020;-71
2023/04/20 09:40:33;;;;;;;39.83;18.50;;;8.00;99.90;;;;;;5062000;28;20029;-72
2023/04/20 09:43:05;;;;;;;29.50;17.45;;;7.90;99.90;;;;;;5060680;28;20071;-69
2023/04/20 09:45:30;;;;;;;31.23;17.45;;;7.90;99.90;;;;;;5059446;28;20075;-71
2023/04/20 09:47:56;;;;;;;32.83;17.73;;;7.90;99.90;;;;;;5060289;28;20044;-72
2023/04/20 09:50:22;;;;;;;31.38;17.67;;;8.00;99.90;;;;;;5061421;28;20056;-72
2023/04/20 09:52:49;;;;;;;32.72;17.65;;;8.00;99.90;;;;;;5061840;28;20040;-72
2023/04/20 09:55:15;;;;;;;30.77;17.58;;;8.20;99.90;;;;;;5062337;28;20041;-72
2023/04/20 09:57:43;;;;;;;31.63;19.40;;;8.20;99.90;;;;;;5061997;28;20017;-72
2023/04/20 10:00:09;;;;;;;33.72;19.17;;;8.30;99.90;;;;;;5057131;28;20026;-70
2023/04/20 10:02:36;;;;;;;35.30;18.40;;;8.30;99.90;;;;;;5057452;28;20028;-71
2023/04/20 10:05:02;;;;;;;29.35;18.40;;;8.30;99.90;;;;;;5060765;28;20049;-69
2023/04/20 10:07:30;;;;;;;32.42;17.98;;;8.20;99.90;;;;;;5060406;28;20024;-71
2023/04/20 10:10:03;;;;;;;33.45;18.85;;;8.20;99.90;;;;;;5061967;28;20116;-73
2023/04/20 10:12:29;;;;;;;35.55;18.90;;;8.20;99.90;;;;;;5061438;28;20033;-73
2023/04/20 10:15:00;;;;;;;32.70;17.33;;;8.20;99.90;;;;;;5059109;28;20064;-70
2023/04/20 10:17:32;;;;;;;32.55;16.83;;;8.30;99.90;;;;;;5061457;28;20450;-70
2023/04/20 10:19:58;;;;;;;27.38;17.20;;;8.50;99.90;;;;;;5052034;28;20033;-71
2023/04/20 10:22:34;;;;;;;34.83;17.58;;;8.60;99.90;;;;;;5057540;28;20029;-70
2023/04/20 10:25:12;;;;;;;28.85;16.10;;;8.90;99.90;;;;;;5059070;28;20607;-72
2023/04/20 10:27:38;;;;;;;26.73;15.05;;;9.00;99.90;;;;;;5060338;28;20078;-71
2023/04/20 10:30:11;;;;;;;25.45;15.13;;;9.10;99.90;;;;;;5056835;28;20247;-69
2023/04/20 10:32:36;;;;;;;28.10;14.77;;;9.30;99.90;;;;;;5059365;28;20045;-71
2023/04/20 10:35:07;;;;;;;25.02;14.20;;;9.40;99.90;;;;;;5060984;28;20028;-71
2023/04/20 10:37:34;;;;;;;23.63;13.32;;;9.50;99.90;;;;;;5060987;28;20025;-69
2023/04/20 10:40:00;;;;;;;20.50;11.55;;;9.60;99.90;;;;;;5058713;28;20417;-70
2023/04/20 10:42:25;;;;;;;21.10;11.93;;;9.50;99.90;;;;;;5057996;28;20037;-73
2023/04/20 10:44:52;;;;;;;24.60;11.70;;;9.40;99.90;;;;;;5059207;28;20052;-71
2023/04/20 10:47:31;;;;;;;23.20;12.00;;;9.40;99.90;;;;;;5058859;28;20029;-72
2023/04/20 10:50:15;;;;;;;23.75;11.65;;;9.40;99.90;;;;;;5061340;28;20032;-73
2023/04/20 10:52:43;;;;;;;20.83;10.88;;;9.60;99.90;;;;;;5060058;28;20440;-71
2023/04/20 10:55:25;;;;;;;23.80;10.98;;;9.70;99.90;;;;;;5059847;28;20037;-73
2023/04/20 10:57:51;;;;;;;20.17;10.60;;;9.90;99.90;;;;;;5057637;28;20036;-72
2023/04/20 11:00:23;;;;;;;21.15;10.70;;;10.00;99.90;;;;;;5055882;28;20032;-72
2023/04/20 11:02:50;;;;;;;19.40;10.50;;;10.10;99.90;;;;;;5057812;28;20032;-74
2023/04/20 11:05:20;;;;;;;17.67;10.15;;;10.30;99.90;;;;;;5059795;28;20029;-72
2023/04/20 11:07:53;;;;;;;20.55;10.32;;;10.50;99.90;;;;;;5060494;28;20036;-72
2023/04/20 11:10:41;;;;;;;21.77;10.80;;;10.70;99.90;;;;;;5059979;28;20037;-74
2023/04/20 11:13:18;;;;;;;18.45;10.10;;;10.80;99.90;;;;;;5060049;28;20706;-72
2023/04/20 11:15:44;;;;;;;20.20;10.98;;;11.00;99.90;;;;;;5060661;28;20029;-71
2023/04/20 11:18:10;;;;;;;18.45;10.30;;;11.40;99.90;;;;;;5060817;28;20036;-71
2023/04/20 11:20:49;;;;;;;18.92;10.52;;;11.60;99.90;;;;;;5060110;28;20462;-71
2023/04/20 11:23:15;;;;;;;18.00;9.45;;;12.00;99.90;;;;;;5060672;28;20449;-72
2023/04/20 11:25:51;;;;;;;17.33;9.43;;;12.40;99.90;;;;;;5060007;28;20048;-74
2023/04/20 11:28:18;;;;;;;17.15;9.52;;;12.40;99.90;;;;;;5064460;28;20059;-73
2023/04/20 11:30:44;;;;;;;16.15;9.73;;;12.30;99.90;;;;;;5064253;28;20044;-71
2023/04/20 11:33:10;;;;;;;19.33;9.90;;;12.20;99.90;;;;;;5064476;28;20029;-71
2023/04/20 11:35:37;;;;;;;15.05;8.95;;;12.20;99.90;;;;;;5064176;28;20025;-71
2023/04/20 11:38:03;;;;;;;16.02;8.93;;;12.40;99.90;;;;;;5063852;28;20390;-73
2023/04/20 11:40:29;;;;;;;16.75;9.25;;;12.60;99.90;;;;;;5063690;28;20032;-70
2023/04/20 11:42:55;;;;;;;16.52;9.35;;;12.80;99.90;;;;;;5064323;28;20048;-72
2023/04/20 11:45:22;;;;;;;14.40;8.82;;;12.80;99.90;;;;;;5062630;28;20188;-71
2023/04/20 11:47:48;;;;;;;16.92;9.02;;;12.70;99.90;;;;;;5064500;28;20033;-70
2023/04/20 11:50:13;;;;;;;13.40;9.02;;;12.90;99.90;;;;;;5063581;28;20037;-73
2023/04/20 11:52:39;;;;;;;13.90;9.18;;;13.10;99.90;;;;;;5064272;28;20366;-68
2023/04/20 11:55:05;;;;;;;15.45;8.93;;;13.40;99.90;;;;;;5063781;28;20067;-71
2023/04/20 11:57:31;;;;;;;15.30;9.35;;;13.60;99.90;;;;;;5063565;28;20036;-71
2023/04/20 11:59:57;;;;;;;13.55;8.85;;;13.70;99.90;;;;;;5063928;28;20021;-71
2023/04/20 12:02:23;;;;;;;14.55;9.38;;;13.70;99.90;;;;;;5064182;28;20046;-68
2023/04/20 12:04:49;;;;;;;14.38;8.75;;;13.70;99.90;;;;;;5064103;28;20025;-70
2023/04/20 12:07:14;;;;;;;15.70;9.00;;;13.70;99.90;;;;;;5062171;28;20054;-70
2023/04/20 12:09:40;;;;;;;16.17;10.10;;;13.70;99.90;;;;;;5062664;28;20057;-70
2023/04/20 12:12:07;;;;;;;17.75;9.88;;;13.80;99.90;;;;;;5063557;28;20029;-70
2023/04/20 12:14:33;;;;;;;13.45;9.70;;;14.00;99.90;;;;;;5063174;28;20013;-71
2023/04/20 12:17:00;;;;;;;13.38;8.93;;;14.20;99.90;;;;;;5062016;28;20021;-68
2023/04/20 12:19:26;;;;;;;14.43;9.00;;;14.40;99.90;;;;;;5063581;28;20398;-70
2023/04/20 12:21:51;;;;;;;13.07;9.10;;;14.50;99.90;;;;;;5063584;28;20025;-70
2023/04/20 12:24:17;;;;;;;15.07;9.57;;;14.50;99.90;;;;;;5063661;28;20118;-71
2023/04/20 12:26:43;;;;;;;15.02;9.77;;;14.50;99.90;;;;;;5063047;28;20094;-71
2023/04/20 12:29:08;;;;;;;13.90;8.88;;;14.50;99.90;;;;;;5062841;28;20078;-71
2023/04/20 12:31:34;;;;;;;13.65;9.05;;;14.70;99.90;;;;;;5061735;28;20044;-71
2023/04/20 12:34:00;;;;;;;12.45;9.15;;;15.20;99.90;;;;;;5063143;28;20021;-70
2023/04/20 12:36:26;;;;;;;13.50;9.15;;;15.50;99.90;;;;;;5062927;28;20017;-71
2023/04/20 12:38:54;;;;;;;12.50;9.10;;;15.50;99.90;;;;;;5060280;28;20025;-71
2023/04/20 12:41:22;;;;;;;12.77;8.40;;;15.50;99.90;;;;;;5062691;28;20040;-71